createdAt,value
2022-08-12T00:02:04.789Z,51.87
2022-08-12T00:04:52.798Z,52.39
2022-08-12T00:07:39.222Z,52.47
2022-08-12T00:10:25.013Z,52.59
2022-08-12T00:13:12.886Z,52.88
2022-08-12T00:16:01.225Z,52.94
2022-08-12T00:18:46.688Z,53.14
2022-08-12T00:21:33.252Z,53.66
2022-08-12T00:24:22.309Z,53.73
2022-08-12T00:27:08.215Z,53.62
2022-08-12T00:29:54.253Z,53.91
2022-08-12T00:32:43.521Z,54.14
2022-08-12T00:35:41.456Z,54.25
2022-08-12T00:38:26.569Z,54.55
2022-08-12T00:41:12.464Z,54.48
2022-08-12T00:43:39.778Z,54.61
2022-08-12T00:46:24.874Z,54.48
2022-08-12T00:48:52.225Z,54.35
2022-08-12T00:51:20.015Z,54.76
2022-08-12T00:53:47.373Z,54.85
2022-08-12T00:56:14.246Z,55.02
2022-08-12T00:58:48.489Z,54.85
2022-08-12T01:01:17.174Z,55.29
2022-08-12T01:04:08.193Z,55.35
2022-08-12T01:06:55.689Z,55.33
2022-08-12T01:09:41.180Z,55.27
2022-08-12T01:12:10.789Z,55.49
2022-08-12T01:14:37.546Z,55.50
2022-08-12T01:17:04.172Z,55.59
2022-08-12T01:19:31.164Z,55.97
2022-08-12T01:22:33.960Z,55.96
2022-08-12T01:25:06.742Z,56.44
2022-08-12T01:27:35.139Z,56.29
2022-08-12T01:30:07.785Z,56.26
2022-08-12T01:32:37.615Z,56.27
2022-08-12T01:35:10.430Z,56.68
2022-08-12T01:37:55.909Z,56.57
2022-08-12T01:40:36.990Z,56.68
2022-08-12T01:43:08.560Z,56.76
2022-08-12T01:45:43.620Z,56.78
2022-08-12T01:48:34.821Z,56.83
2022-08-12T01:52:15.770Z,57.30
2022-08-12T01:54:18.126Z,57.40
2022-08-12T01:56:50.336Z,57.27
2022-08-12T01:59:47.153Z,57.42
2022-08-12T02:02:19.109Z,57.84
2022-08-12T02:05:22.083Z,57.69
2022-08-12T02:08:16.516Z,58.19
2022-08-12T02:11:16.459Z,58.17
2022-08-12T02:14:03.979Z,58.40
2022-08-12T02:16:46.337Z,58.72
2022-08-12T02:19:54.590Z,58.42
2022-08-12T02:22:38.334Z,58.75
2022-08-12T02:25:10.017Z,58.89
2022-08-12T02:27:45.780Z,59.40
2022-08-12T02:30:16.348Z,59.50
2022-08-12T02:32:44.887Z,59.64
2022-08-12T02:35:15.037Z,59.68
2022-08-12T02:37:43.721Z,59.74
2022-08-12T02:40:12.478Z,59.98
2022-08-12T02:42:50.044Z,59.77
2022-08-12T02:45:22.119Z,60.06
2022-08-12T02:47:59.672Z,60.39
2022-08-12T02:50:31.608Z,60.96
2022-08-12T02:52:59.510Z,60.81
2022-08-12T02:55:34.989Z,61.08
2022-08-12T02:58:09.120Z,60.98
2022-08-12T03:00:40.117Z,60.99
2022-08-12T03:03:10.035Z,61.33
2022-08-12T03:05:45.080Z,60.95
2022-08-12T03:08:31.407Z,61.31
2022-08-12T03:11:10.159Z,61.49
2022-08-12T03:13:45.933Z,62.07
2022-08-12T03:16:12.662Z,62.02
2022-08-12T03:18:45.817Z,61.80
2022-08-12T03:21:17.004Z,61.57
2022-08-12T03:23:45.430Z,62.15
2022-08-12T03:26:12.575Z,62.35
2022-08-12T03:28:51.450Z,62.51
2022-08-12T03:31:19.583Z,62.41
2022-08-12T03:34:02.386Z,62.81
2022-08-12T03:36:36.073Z,62.47
2022-08-12T03:39:35.423Z,62.91
2022-08-12T03:42:26.444Z,63.35
2022-08-12T03:45:52.002Z,63.17
2022-08-12T03:48:38.481Z,63.50
2022-08-12T03:51:24.045Z,63.36
2022-08-12T03:54:11.597Z,63.65
2022-08-12T03:56:57.741Z,63.64
2022-08-12T03:59:42.795Z,63.46
2022-08-12T04:02:14.728Z,63.70
2022-08-12T04:04:45.130Z,63.59
2022-08-12T04:07:12.639Z,63.76
2022-08-12T04:09:42.955Z,64.02
2022-08-12T04:12:32.905Z,63.76
2022-08-12T04:15:00.693Z,63.82
2022-08-12T04:17:28.270Z,64.34
2022-08-12T04:19:56.615Z,64.11
2022-08-12T04:22:26.370Z,64.53
2022-08-12T04:24:53.870Z,64.50
2022-08-12T04:27:20.508Z,64.08
2022-08-12T04:30:30.032Z,64.54
2022-08-12T04:32:36.879Z,64.42
2022-08-12T04:35:07.391Z,64.41
2022-08-12T04:37:57.999Z,64.31
2022-08-12T04:40:28.135Z,65.03
2022-08-12T04:42:55.811Z,65.38
2022-08-12T04:45:22.684Z,64.51
2022-08-12T04:47:49.362Z,64.82
2022-08-12T04:50:35.373Z,64.68
2022-08-12T04:53:04.659Z,65.02
2022-08-12T04:55:31.629Z,64.65
2022-08-12T04:58:00.240Z,64.48
2022-08-12T05:00:27.584Z,64.57
2022-08-12T05:02:54.040Z,65.18
2022-08-12T05:05:23.205Z,64.80
2022-08-12T05:07:54.241Z,65.17
2022-08-12T05:10:33.186Z,65.46
2022-08-12T05:13:06.054Z,64.80
2022-08-12T05:15:32.554Z,65.22
2022-08-12T05:18:00.129Z,65.07
2022-08-12T05:20:29.465Z,65.16
2022-08-12T05:23:19.366Z,65.17
2022-08-12T05:25:48.977Z,65.44
2022-08-12T05:28:16.971Z,65.79
2022-08-12T05:30:44.643Z,65.56
2022-08-12T05:33:12.432Z,64.79
2022-08-12T05:35:42.824Z,64.72
2022-08-12T05:38:29.707Z,64.85
2022-08-12T05:40:56.483Z,64.89
2022-08-12T05:43:23.214Z,64.25
2022-08-12T05:45:49.629Z,64.63
2022-08-12T05:48:16.657Z,65.26
2022-08-12T05:50:44.167Z,65.43
2022-08-12T05:53:11.436Z,65.34
2022-08-12T05:55:37.885Z,65.54
2022-08-12T05:58:07.698Z,65.44
2022-08-12T06:00:35.757Z,65.67
2022-08-12T06:03:04.604Z,66.46
2022-08-12T06:05:52.539Z,66.00
2022-08-12T06:08:23.369Z,65.67
2022-08-12T06:10:50.289Z,66.12
2022-08-12T06:13:28.442Z,62.57
2022-08-12T06:16:04.746Z,66.11
2022-08-12T06:18:31.325Z,64.92
2022-08-12T06:21:02.060Z,64.03
2022-08-12T06:23:29.583Z,64.93
2022-08-12T06:25:56.669Z,64.40
2022-08-12T06:28:23.610Z,64.73
2022-08-12T06:31:24.430Z,64.52
2022-08-12T06:34:00.182Z,63.88
2022-08-12T06:36:29.475Z,63.67
2022-08-12T06:38:56.230Z,63.51
2022-08-12T06:41:41.146Z,63.37
2022-08-12T06:44:27.712Z,61.92
2022-08-12T06:46:54.218Z,61.09
2022-08-12T06:49:23.706Z,59.52
2022-08-12T06:51:56.276Z,58.33
2022-08-12T06:54:31.860Z,57.92
2022-08-12T06:57:04.225Z,55.67
2022-08-12T06:59:32.276Z,55.82
2022-08-12T07:01:58.753Z,54.33
2022-08-12T07:04:36.380Z,53.44
2022-08-12T07:07:05.459Z,52.26
2022-08-12T07:10:04.158Z,52.27
2022-08-12T07:12:19.910Z,51.07
2022-08-12T07:14:51.321Z,50.77
2022-08-12T07:17:17.888Z,49.14
2022-08-12T07:19:46.773Z,49.09
2022-08-12T07:22:15.461Z,47.90
2022-08-12T07:24:42.225Z,46.98
2022-08-12T07:27:08.749Z,46.13
2022-08-12T07:30:03.627Z,43.75
2022-08-12T07:32:25.534Z,45.31
2022-08-12T07:34:56.155Z,45.29
2022-08-12T07:37:22.596Z,43.35
2022-08-12T07:39:59.101Z,44.21
2022-08-12T07:42:27.410Z,43.94
2022-08-12T07:44:53.864Z,43.12
2022-08-12T07:47:20.264Z,43.46
2022-08-12T07:50:05.611Z,41.60
2022-08-12T07:52:34.549Z,42.35
2022-08-12T07:55:01.988Z,39.67
2022-08-12T07:57:28.412Z,41.70
2022-08-12T07:59:55.645Z,41.94
2022-08-12T08:02:30.703Z,41.34
2022-08-12T08:04:58.061Z,41.74
2022-08-12T08:07:27.346Z,40.86
2022-08-12T08:09:59.305Z,39.45
2022-08-12T08:12:45.993Z,38.59
2022-08-12T08:15:14.818Z,38.18
2022-08-12T08:17:51.953Z,36.70
2022-08-12T08:20:28.426Z,37.58
2022-08-12T08:22:57.012Z,35.19
2022-08-12T08:25:36.315Z,36.36
2022-08-12T08:28:09.067Z,35.29
2022-08-12T08:30:38.735Z,34.77
2022-08-12T08:33:20.086Z,32.98
2022-08-12T08:35:51.459Z,35.21
2022-08-12T08:38:32.119Z,32.59
2022-08-12T08:42:15.897Z,32.61
2022-08-12T08:44:06.120Z,32.83
2022-08-12T08:46:37.636Z,31.06
2022-08-12T08:49:05.278Z,32.08
2022-08-12T08:51:32.081Z,32.18
2022-08-12T08:53:58.536Z,33.12
2022-08-12T08:56:25.009Z,31.62
2022-08-12T08:58:51.414Z,30.80
2022-08-12T09:01:22.399Z,30.41
2022-08-12T09:05:08.987Z,31.92
2022-08-12T09:09:23.789Z,28.01
2022-08-12T09:12:12.226Z,28.07
2022-08-12T09:14:46.819Z,28.28
2022-08-12T09:17:21.373Z,27.32
2022-08-12T09:19:57.268Z,26.10
2022-08-12T09:22:29.314Z,26.78
2022-08-12T09:24:55.986Z,26.04
2022-08-12T09:30:15.844Z,25.80
2022-08-12T09:33:04.226Z,25.17
2022-08-12T09:35:44.224Z,25.79
2022-08-12T09:38:29.840Z,25.24
2022-08-12T09:42:07.487Z,26.35
2022-08-12T09:44:06.043Z,24.85
2022-08-12T09:46:34.709Z,26.32
2022-08-12T09:49:01.501Z,25.94
2022-08-12T09:51:37.733Z,26.32
2022-08-12T09:54:33.773Z,24.24
2022-08-12T09:57:03.614Z,25.11
2022-08-12T10:00:14.855Z,23.78
2022-08-12T10:02:45.497Z,22.09
2022-08-12T10:05:22.631Z,24.72
2022-08-12T10:08:10.621Z,22.85
2022-08-12T10:10:58.588Z,22.69
2022-08-12T10:13:43.553Z,22.64
2022-08-12T10:16:22.366Z,22.62
2022-08-12T10:19:03.889Z,22.44
2022-08-12T10:21:38.559Z,21.92
2022-08-12T10:24:20.279Z,22.83
2022-08-12T10:27:05.659Z,22.16
2022-08-12T10:30:03.706Z,22.79
2022-08-12T10:32:42.748Z,21.54
2022-08-12T10:35:13.981Z,23.15
2022-08-12T10:38:38.768Z,21.45
2022-08-12T10:40:33.244Z,22.46
2022-08-12T10:43:19.584Z,21.11
2022-08-12T10:45:49.570Z,21.65
2022-08-12T10:48:21.313Z,21.33
2022-08-12T10:51:01.215Z,21.67
2022-08-12T10:53:46.004Z,20.61
2022-08-12T10:56:17.579Z,21.00
2022-08-12T10:58:46.755Z,20.64
2022-08-12T11:01:50.118Z,20.48
2022-08-12T11:04:35.528Z,20.43
2022-08-12T11:07:05.912Z,21.61
2022-08-12T11:10:00.035Z,20.38
2022-08-12T11:12:56.675Z,20.81
2022-08-12T11:15:20.793Z,21.09
2022-08-12T11:17:53.585Z,21.07
2022-08-12T11:20:20.779Z,21.37
2022-08-12T11:22:59.086Z,21.54
2022-08-12T11:25:42.787Z,20.72
2022-08-12T11:28:13.808Z,19.80
2022-08-12T11:30:40.938Z,20.76
2022-08-12T11:33:11.677Z,19.87
2022-08-12T11:35:42.904Z,20.19
2022-08-12T11:38:10.758Z,20.12
2022-08-12T11:40:37.210Z,20.12
2022-08-12T11:43:19.743Z,19.81
2022-08-12T11:45:46.835Z,20.58
2022-08-12T11:48:15.181Z,20.12
2022-08-12T11:50:45.111Z,20.26
2022-08-12T11:53:57.032Z,20.52
2022-08-12T12:02:02.691Z,19.75
2022-08-12T12:02:31.727Z,20.27
2022-08-12T12:04:58.302Z,20.07
2022-08-12T12:08:37.187Z,19.53
2022-08-12T12:10:13.407Z,20.55
2022-08-12T12:12:41.411Z,20.46
2022-08-12T12:15:09.524Z,19.90
2022-08-12T12:17:40.547Z,21.19
2022-08-12T12:20:10.004Z,21.53
2022-08-12T12:22:39.622Z,21.67
2022-08-12T12:25:13.316Z,21.21
2022-08-12T12:28:04.859Z,20.31
2022-08-12T12:30:33.741Z,21.01
2022-08-12T12:33:00.475Z,20.70
2022-08-12T12:36:19.712Z,20.49
2022-08-12T12:38:14.570Z,20.54
2022-08-12T12:40:46.138Z,20.09
2022-08-12T12:43:42.569Z,20.64
2022-08-12T12:46:04.710Z,20.62
2022-08-12T12:48:31.115Z,20.98
2022-08-12T12:51:49.185Z,20.49
2022-08-12T12:54:06.868Z,20.48
2022-08-12T12:56:50.055Z,20.47
2022-08-12T12:59:54.861Z,21.42
2022-08-12T13:02:08.189Z,21.11
2022-08-12T13:04:37.457Z,20.49
2022-08-12T13:07:06.370Z,20.74
2022-08-12T13:09:35.818Z,20.51
2022-08-12T13:12:03.001Z,21.34
2022-08-12T13:14:31.636Z,21.31
2022-08-12T13:17:02.598Z,22.37
2022-08-12T13:19:45.100Z,22.86
2022-08-12T13:22:18.484Z,21.74
2022-08-12T13:24:45.439Z,21.13
2022-08-12T13:27:11.849Z,21.48
2022-08-12T13:29:39.121Z,22.69
2022-08-12T13:32:19.297Z,22.13
2022-08-12T13:34:53.440Z,22.67
2022-08-12T13:37:43.860Z,22.43
2022-08-12T13:40:17.807Z,22.06
2022-08-12T13:42:48.104Z,21.67
2022-08-12T13:45:17.432Z,21.45
2022-08-12T13:48:10.321Z,21.49
2022-08-12T13:50:43.475Z,22.47
2022-08-12T13:53:25.980Z,23.18
2022-08-12T13:56:02.411Z,23.55
2022-08-12T13:58:34.762Z,23.52
2022-08-12T14:01:05.348Z,23.41
2022-08-12T14:03:51.420Z,23.28
2022-08-12T14:06:18.639Z,23.98
2022-08-12T14:08:45.275Z,22.89
2022-08-12T14:11:18.161Z,23.24
2022-08-12T14:14:04.712Z,22.67
2022-08-12T14:16:37.548Z,22.90
2022-08-12T14:19:18.291Z,22.95
2022-08-12T14:22:00.949Z,23.66
2022-08-12T14:24:40.571Z,23.34
2022-08-12T14:27:10.404Z,23.49
2022-08-12T14:30:05.722Z,24.25
2022-08-12T14:32:35.402Z,23.81
2022-08-12T14:35:06.603Z,23.97
2022-08-12T14:37:56.073Z,23.43
2022-08-12T14:40:27.996Z,24.19
2022-08-12T14:42:55.157Z,24.00
2022-08-12T14:45:24.663Z,23.63
2022-08-12T14:48:12.476Z,23.07
2022-08-12T14:52:07.904Z,23.66
2022-08-12T14:59:23.936Z,24.42
2022-08-12T15:01:51.103Z,25.10
2022-08-12T15:04:24.672Z,24.16
2022-08-12T15:06:53.098Z,24.92
2022-08-12T15:09:28.731Z,24.32
2022-08-12T15:12:03.078Z,25.21
2022-08-12T15:14:31.324Z,24.75
2022-08-12T15:17:00.723Z,24.18
2022-08-12T15:20:28.248Z,24.52
2022-08-12T15:22:37.940Z,24.43
2022-08-12T15:25:05.262Z,24.59
2022-08-12T15:28:11.105Z,24.26
2022-08-12T15:30:25.558Z,24.23
2022-08-12T15:32:57.135Z,24.40
2022-08-12T15:35:24.026Z,24.48
2022-08-12T15:38:10.207Z,24.36
2022-08-12T15:40:46.673Z,25.06
2022-08-12T15:43:51.778Z,24.76
2022-08-12T15:46:02.865Z,25.12
2022-08-12T15:48:32.615Z,24.75
2022-08-12T15:51:00.394Z,24.76
2022-08-12T15:53:46.098Z,24.98
2022-08-12T15:56:22.154Z,24.77
2022-08-12T15:58:58.825Z,25.47
2022-08-12T16:01:34.996Z,25.25
2022-08-12T16:04:03.155Z,24.55
2022-08-12T16:06:52.095Z,24.94
2022-08-12T16:09:56.488Z,25.10
2022-08-12T16:12:08.844Z,26.47
2022-08-12T16:14:38.640Z,25.18
2022-08-12T16:17:05.433Z,24.97
2022-08-12T16:20:02.849Z,24.38
2022-08-12T16:22:25.717Z,25.49
2022-08-12T16:24:54.045Z,25.13
2022-08-12T16:27:21.273Z,25.66
2022-08-12T16:29:57.010Z,25.78
2022-08-12T16:32:31.768Z,26.10
2022-08-12T16:35:01.272Z,26.14
2022-08-12T16:38:25.423Z,25.21
2022-08-12T16:40:19.903Z,25.74
2022-08-12T16:42:53.616Z,26.38
2022-08-12T16:45:32.097Z,25.64
2022-08-12T16:48:33.944Z,26.20
2022-08-12T16:51:08.232Z,26.69
2022-08-12T16:53:44.806Z,26.74
2022-08-12T16:56:14.726Z,26.95
2022-08-12T16:58:42.171Z,26.11
2022-08-12T17:01:14.020Z,27.22
2022-08-12T17:03:51.887Z,26.77
2022-08-12T17:06:22.421Z,26.90
2022-08-12T17:09:02.255Z,26.77
2022-08-12T17:11:34.644Z,27.49
2022-08-12T17:14:07.049Z,27.53
2022-08-12T17:16:35.483Z,27.39
2022-08-12T17:19:09.486Z,26.43
2022-08-12T17:21:41.446Z,25.82
2022-08-12T17:24:30.587Z,26.70
2022-08-12T17:26:59.290Z,25.55
2022-08-12T17:30:01.400Z,27.41
2022-08-12T17:32:14.309Z,27.62
2022-08-12T17:35:00.115Z,26.74
2022-08-12T17:37:26.963Z,27.70
2022-08-12T17:40:15.210Z,28.26
2022-08-12T17:42:47.271Z,26.79
2022-08-12T17:45:19.331Z,27.37
2022-08-12T17:48:05.438Z,27.44
2022-08-12T17:50:40.107Z,27.81
2022-08-12T17:53:07.866Z,27.01
2022-08-12T17:55:40.119Z,28.14
2022-08-12T17:58:14.057Z,28.36
2022-08-12T18:00:44.116Z,28.59
2022-08-12T18:04:05.586Z,28.66
2022-08-12T18:06:08.740Z,28.80
2022-08-12T18:08:54.957Z,28.92
2022-08-12T18:12:04.505Z,29.60
2022-08-12T18:14:28.946Z,30.18
2022-08-12T18:17:00.506Z,30.40
2022-08-12T18:20:03.952Z,30.28
2022-08-12T18:22:17.437Z,30.16
2022-08-12T18:24:46.333Z,30.93
2022-08-12T18:27:30.336Z,30.52
2022-08-12T18:30:08.222Z,31.07
2022-08-12T18:32:58.645Z,31.25
2022-08-12T18:35:22.756Z,31.49
2022-08-12T18:38:08.357Z,31.52
2022-08-12T18:40:58.157Z,31.64
2022-08-12T18:43:25.829Z,32.66
2022-08-12T18:45:58.475Z,31.96
2022-08-12T18:48:25.309Z,31.34
2022-08-12T18:51:03.626Z,31.03
2022-08-12T18:54:05.589Z,31.80
2022-08-12T18:56:33.443Z,32.83
2022-08-12T18:59:02.305Z,32.53
2022-08-12T19:02:19.232Z,32.42
2022-08-12T19:04:16.778Z,32.46
2022-08-12T19:06:45.787Z,31.91
2022-08-12T19:09:14.924Z,31.75
2022-08-12T19:12:01.078Z,32.46
2022-08-12T19:14:28.159Z,32.42
2022-08-12T19:16:57.788Z,33.88
2022-08-12T19:19:24.764Z,33.54
2022-08-12T19:21:56.958Z,32.71
2022-08-12T19:24:44.817Z,33.22
2022-08-12T19:27:13.148Z,33.27
2022-08-12T19:29:44.424Z,33.64
2022-08-12T19:32:14.817Z,33.36
2022-08-12T19:38:03.475Z,33.31
2022-08-12T19:40:32.428Z,34.53
2022-08-12T19:43:02.213Z,33.84
2022-08-12T19:45:48.516Z,33.74
2022-08-12T19:48:17.832Z,34.34
2022-08-12T19:50:49.869Z,34.10
2022-08-12T19:53:19.107Z,34.01
2022-08-12T19:55:51.831Z,35.16
2022-08-12T19:58:19.425Z,34.26
2022-08-12T20:00:52.788Z,35.09
2022-08-12T20:03:40.069Z,33.90
2022-08-12T20:06:16.019Z,35.51
2022-08-12T20:08:56.375Z,34.99
2022-08-12T20:12:14.378Z,35.27
2022-08-12T20:14:17.911Z,35.83
2022-08-12T20:16:52.718Z,35.46
2022-08-12T20:19:23.354Z,35.42
2022-08-12T20:21:50.400Z,36.27
2022-08-12T20:24:16.853Z,36.55
2022-08-12T20:26:46.233Z,36.63
2022-08-12T20:29:13.731Z,36.76
2022-08-12T20:31:41.436Z,36.17
2022-08-12T20:34:12.230Z,37.60
2022-08-12T20:36:44.144Z,37.53
2022-08-12T20:39:34.166Z,37.71
2022-08-12T20:42:04.509Z,37.73
2022-08-12T20:44:39.904Z,37.96
2022-08-12T20:47:17.721Z,38.20
2022-08-12T20:49:45.939Z,37.97
2022-08-12T20:52:15.248Z,38.10
2022-08-12T20:54:52.609Z,38.94
2022-08-12T20:57:22.435Z,39.12
2022-08-12T20:59:51.839Z,38.86
2022-08-12T21:02:24.717Z,39.35
2022-08-12T21:05:20.299Z,39.42
2022-08-12T21:07:52.108Z,38.85
2022-08-12T21:10:20.838Z,38.40
2022-08-12T21:12:47.958Z,38.98
2022-08-12T21:15:24.453Z,39.80
2022-08-12T21:18:11.499Z,40.03
2022-08-12T21:20:52.506Z,40.13
2022-08-12T21:23:21.510Z,40.42
2022-08-12T21:25:49.008Z,39.13
2022-08-12T21:28:30.693Z,38.84
2022-08-12T21:32:34.657Z,39.61
2022-08-12T21:33:58.675Z,39.39
2022-08-12T21:36:35.119Z,39.48
2022-08-12T21:39:18.074Z,39.91
2022-08-12T21:41:50.173Z,40.77
2022-08-12T21:44:24.063Z,40.43
2022-08-12T21:47:19.695Z,40.67
2022-08-12T21:49:54.118Z,40.78
2022-08-12T21:52:34.241Z,40.82
2022-08-12T21:55:01.666Z,40.70
2022-08-12T21:57:30.362Z,40.92
2022-08-12T22:00:16.873Z,40.60
2022-08-12T22:03:02.513Z,40.95
2022-08-12T22:05:47.827Z,41.37
2022-08-12T22:08:17.032Z,41.20
2022-08-12T22:10:51.141Z,41.58
2022-08-12T22:14:07.632Z,41.54
2022-08-12T22:16:06.469Z,41.31
2022-08-12T22:18:32.917Z,41.22
2022-08-12T22:20:59.332Z,40.50
2022-08-12T22:23:28.280Z,41.47
2022-08-12T22:26:16.066Z,41.77
2022-08-12T22:29:14.485Z,41.70
2022-08-12T22:31:43.922Z,41.27
2022-08-12T22:34:18.384Z,41.42
2022-08-12T22:36:45.566Z,41.79
2022-08-12T22:39:15.697Z,41.70
2022-08-12T22:42:01.186Z,41.67
2022-08-12T22:44:54.858Z,42.03
2022-08-12T22:47:53.972Z,42.16
2022-08-12T22:50:27.760Z,39.85
2022-08-12T22:53:14.980Z,41.31
2022-08-12T22:55:59.576Z,41.71
2022-08-12T22:58:32.019Z,41.65
2022-08-12T23:01:01.958Z,41.55
2022-08-12T23:03:49.335Z,42.02
2022-08-12T23:06:16.717Z,41.42
2022-08-12T23:08:43.463Z,41.86
2022-08-12T23:11:09.921Z,42.05
2022-08-12T23:13:47.288Z,42.43
2022-08-12T23:16:28.536Z,42.26
2022-08-12T23:19:01.652Z,42.17
2022-08-12T23:22:04.344Z,42.89
2022-08-12T23:24:35.678Z,42.33
2022-08-12T23:27:21.296Z,41.85
2022-08-12T23:30:17.435Z,41.85
2022-08-12T23:32:36.831Z,42.05
2022-08-12T23:35:06.457Z,41.46
2022-08-12T23:37:47.484Z,41.31
2022-08-12T23:40:21.254Z,41.97
2022-08-12T23:42:49.150Z,41.89
2022-08-12T23:45:20.132Z,41.85
2022-08-12T23:47:58.365Z,41.56
2022-08-12T23:50:34.303Z,41.50
2022-08-12T23:53:06.649Z,41.80
2022-08-12T23:55:49.867Z,42.26
2022-08-12T23:58:22.786Z,41.60
